createdAt,value
2018-07-23T00:00:21.594Z,71.17
2018-07-23T00:02:51.529Z,71.35
2018-07-23T00:05:20.372Z,70.90
2018-07-23T00:07:49.312Z,71.87
2018-07-23T00:10:18.849Z,71.34
2018-07-23T00:12:47.906Z,71.83
2018-07-23T00:15:17.017Z,71.68
2018-07-23T00:17:46.432Z,70.50
2018-07-23T00:20:15.315Z,71.11
2018-07-23T00:22:44.304Z,70.94
2018-07-23T00:25:13.801Z,71.60
2018-07-23T00:27:42.695Z,71.58
2018-07-23T00:30:11.494Z,71.79
2018-07-23T00:32:40.822Z,70.96
2018-07-23T00:35:09.763Z,69.98
2018-07-23T00:37:38.681Z,70.38
2018-07-23T00:40:08.091Z,70.44
2018-07-23T00:42:37.486Z,69.79
2018-07-23T00:45:06.495Z,69.70
2018-07-23T00:47:35.788Z,69.56
2018-07-23T00:50:05.594Z,69.49
2018-07-23T00:52:34.868Z,69.23
2018-07-23T00:55:04.111Z,69.24
2018-07-23T00:57:33.077Z,69.51
2018-07-23T01:00:02.235Z,69.66
2018-07-23T01:02:31.446Z,69.59
2018-07-23T01:05:01.265Z,70.06
2018-07-23T01:07:30.679Z,70.83
2018-07-23T01:10:00.231Z,70.75
2018-07-23T01:12:30.771Z,70.52
2018-07-23T01:14:59.506Z,70.89
2018-07-23T01:17:29.045Z,71.53
2018-07-23T01:19:59.053Z,71.68
2018-07-23T01:22:28.741Z,71.68
2018-07-23T01:24:58.995Z,71.51
2018-07-23T01:27:28.095Z,71.80
2018-07-23T01:29:57.211Z,71.84
2018-07-23T01:32:27.433Z,73.17
2018-07-23T01:34:57.015Z,72.61
2018-07-23T01:37:25.643Z,72.62
2018-07-23T01:39:54.754Z,73.05
2018-07-23T01:42:24.060Z,73.54
2018-07-23T01:44:53.192Z,73.53
2018-07-23T01:47:22.841Z,74.19
2018-07-23T01:49:51.886Z,74.34
2018-07-23T01:52:20.794Z,74.21
2018-07-23T01:54:50.418Z,74.19
2018-07-23T01:57:19.608Z,74.30
2018-07-23T01:59:48.258Z,75.19
2018-07-23T02:02:17.362Z,75.99
2018-07-23T02:04:46.381Z,76.22
2018-07-23T02:07:15.487Z,75.83
2018-07-23T02:09:44.606Z,76.00
2018-07-23T02:12:13.471Z,76.39
2018-07-23T02:14:42.485Z,77.14
2018-07-23T02:17:11.784Z,77.38
2018-07-23T02:19:42.294Z,77.58
2018-07-23T02:22:11.366Z,78.05
2018-07-23T02:24:40.089Z,78.03
2018-07-23T02:27:09.098Z,78.08
2018-07-23T02:29:38.344Z,78.49
2018-07-23T02:32:07.691Z,79.29
2018-07-23T02:34:36.748Z,79.44
2018-07-23T02:37:06.225Z,78.88
2018-07-23T02:39:36.230Z,78.83
2018-07-23T02:42:05.282Z,78.57
2018-07-23T02:44:34.288Z,77.95
2018-07-23T02:47:03.311Z,78.14
2018-07-23T02:49:32.372Z,78.83
2018-07-23T02:52:01.265Z,79.21
2018-07-23T02:54:30.692Z,79.17
2018-07-23T02:56:59.667Z,78.88
2018-07-23T02:59:28.545Z,80.13
2018-07-23T03:01:58.153Z,80.18
2018-07-23T03:04:27.839Z,78.97
2018-07-23T03:06:57.228Z,79.87
2018-07-23T03:09:26.432Z,79.65
2018-07-23T03:11:55.198Z,78.98
2018-07-23T03:14:24.080Z,78.61
2018-07-23T03:16:54.181Z,77.39
2018-07-23T03:19:23.113Z,77.73
2018-07-23T03:21:52.980Z,78.19
2018-07-23T03:24:21.792Z,77.51
2018-07-23T03:26:51.742Z,75.93
2018-07-23T03:29:20.927Z,74.54
2018-07-23T03:31:50.671Z,72.08
2018-07-23T03:34:19.290Z,69.70
2018-07-23T03:36:48.749Z,67.72
2018-07-23T03:39:17.764Z,65.29
2018-07-23T03:41:46.653Z,62.36
2018-07-23T03:44:15.624Z,59.69
2018-07-23T03:46:44.759Z,57.36
2018-07-23T03:49:14.018Z,56.37
2018-07-23T03:51:42.814Z,53.21
2018-07-23T03:54:11.568Z,51.12
2018-07-23T03:56:40.276Z,49.42
2018-07-23T03:59:09.077Z,47.35
2018-07-23T04:01:37.780Z,46.64
2018-07-23T04:04:06.874Z,45.98
2018-07-23T04:06:36.127Z,44.33
2018-07-23T04:09:07.442Z,43.77
2018-07-23T04:11:36.211Z,42.66
2018-07-23T04:14:05.803Z,40.92
2018-07-23T04:16:34.979Z,39.80
2018-07-23T04:19:03.750Z,39.34
2018-07-23T04:21:34.653Z,38.55
2018-07-23T04:24:04.595Z,36.94
2018-07-23T04:26:33.368Z,37.28
2018-07-23T04:29:02.172Z,36.62
2018-07-23T04:31:31.987Z,38.22
2018-07-23T04:34:00.668Z,40.30
2018-07-23T04:36:29.484Z,40.76
2018-07-23T04:38:58.697Z,41.28
2018-07-23T04:41:28.590Z,42.05
2018-07-23T04:43:57.402Z,40.96
2018-07-23T04:46:26.287Z,39.97
2018-07-23T04:48:55.620Z,38.78
2018-07-23T04:51:24.482Z,37.34
2018-07-23T04:53:53.705Z,36.18
2018-07-23T04:56:22.483Z,35.81
2018-07-23T04:58:51.484Z,35.34
2018-07-23T05:01:20.756Z,34.89
2018-07-23T05:03:49.595Z,34.41
2018-07-23T05:06:18.945Z,32.55
2018-07-23T05:08:47.686Z,31.58
2018-07-23T05:11:17.062Z,31.76
2018-07-23T05:13:46.301Z,30.35
2018-07-23T05:16:16.372Z,30.01
2018-07-23T05:18:45.579Z,28.97
2018-07-23T05:21:14.474Z,28.91
2018-07-23T05:23:43.933Z,28.60
2018-07-23T05:26:13.777Z,28.31
2018-07-23T05:28:47.957Z,28.12
2018-07-23T05:31:18.049Z,28.04
2018-07-23T05:33:47.223Z,28.51
2018-07-23T05:36:18.473Z,29.51
2018-07-23T05:38:48.515Z,29.32
2018-07-23T05:41:17.587Z,27.59
2018-07-23T05:43:47.535Z,28.21
2018-07-23T05:46:16.826Z,26.87
2018-07-23T05:48:46.230Z,26.51
2018-07-23T05:51:18.291Z,27.16
2018-07-23T05:53:47.461Z,25.90
2018-07-23T05:56:16.633Z,26.27
2018-07-23T05:58:46.164Z,25.25
2018-07-23T06:01:15.346Z,26.59
2018-07-23T06:03:44.381Z,28.27
2018-07-23T06:06:13.741Z,29.22
2018-07-23T06:08:43.024Z,30.32
2018-07-23T06:11:12.807Z,30.36
2018-07-23T06:13:42.699Z,30.83
2018-07-23T06:16:11.574Z,30.46
2018-07-23T06:18:41.150Z,32.11
2018-07-23T06:21:10.678Z,32.70
2018-07-23T06:23:40.039Z,32.90
2018-07-23T06:26:08.901Z,34.51
2018-07-23T06:28:38.065Z,33.55
2018-07-23T06:31:07.108Z,34.52
2018-07-23T06:33:36.059Z,33.60
2018-07-23T06:36:05.702Z,33.27
2018-07-23T06:38:34.783Z,33.53
2018-07-23T06:41:03.958Z,34.66
2018-07-23T06:43:33.102Z,35.62
2018-07-23T06:46:02.271Z,36.92
2018-07-23T06:48:31.424Z,37.59
2018-07-23T06:51:00.314Z,35.66
2018-07-23T06:53:30.048Z,34.88
2018-07-23T06:55:59.149Z,33.59
2018-07-23T06:58:28.395Z,31.80
2018-07-23T07:00:57.560Z,32.58
2018-07-23T07:03:27.180Z,34.68
2018-07-23T07:05:56.582Z,33.68
2018-07-23T07:08:25.860Z,33.17
2018-07-23T07:10:55.397Z,34.19
2018-07-23T07:13:24.947Z,32.68
2018-07-23T07:15:53.792Z,29.79
2018-07-23T07:18:22.739Z,28.70
2018-07-23T07:20:51.946Z,29.71
2018-07-23T07:23:21.056Z,29.96
2018-07-23T07:25:50.412Z,31.31
2018-07-23T07:28:19.905Z,31.52
2018-07-23T07:30:49.269Z,31.58
2018-07-23T07:33:18.294Z,30.13
2018-07-23T07:35:47.427Z,29.54
2018-07-23T07:38:16.418Z,30.01
2018-07-23T07:40:45.360Z,29.89
2018-07-23T07:43:14.864Z,30.56
2018-07-23T07:45:43.648Z,30.06
2018-07-23T07:48:13.085Z,29.08
2018-07-23T07:50:42.403Z,28.49
2018-07-23T07:53:11.252Z,28.19
2018-07-23T07:55:40.234Z,28.71
2018-07-23T07:58:09.167Z,29.09
2018-07-23T08:00:38.407Z,30.25
2018-07-23T08:03:07.427Z,30.25
2018-07-23T08:05:36.655Z,30.82
2018-07-23T08:08:06.108Z,31.35
2018-07-23T08:10:35.122Z,31.47
2018-07-23T08:13:04.633Z,31.45
2018-07-23T08:15:34.352Z,31.52
2018-07-23T08:18:03.466Z,30.88
2018-07-23T08:20:32.681Z,29.72
2018-07-23T08:23:01.998Z,29.41
2018-07-23T08:25:30.754Z,29.87
2018-07-23T08:28:00.250Z,31.11
2018-07-23T08:30:29.340Z,30.72
2018-07-23T08:32:58.532Z,32.33
2018-07-23T08:35:27.871Z,33.49
2018-07-23T08:37:56.839Z,32.29
2018-07-23T08:40:26.057Z,30.16
2018-07-23T08:42:55.504Z,28.22
2018-07-23T08:45:25.311Z,28.71
2018-07-23T08:47:54.361Z,29.57
2018-07-23T08:50:23.492Z,28.09
2018-07-23T08:52:52.346Z,28.56
2018-07-23T08:55:21.196Z,28.96
2018-07-23T08:57:50.668Z,29.20
2018-07-23T09:00:19.730Z,27.73
2018-07-23T09:02:49.240Z,28.10
2018-07-23T09:05:18.410Z,26.79
2018-07-23T09:07:47.539Z,27.64
2018-07-23T09:10:16.242Z,28.13
2018-07-23T09:12:45.544Z,28.85
2018-07-23T09:15:14.416Z,31.73
2018-07-23T09:17:43.927Z,33.77
2018-07-23T09:20:13.107Z,32.79
2018-07-23T09:22:41.954Z,32.21
2018-07-23T09:25:11.526Z,32.54
2018-07-23T09:27:40.330Z,31.72
2018-07-23T09:30:15.484Z,33.44
2018-07-23T09:32:44.790Z,32.90
2018-07-23T09:35:14.459Z,33.41
2018-07-23T09:37:43.311Z,34.91
2018-07-23T09:40:12.875Z,36.41
2018-07-23T09:42:42.272Z,35.06
2018-07-23T09:45:11.907Z,34.63
2018-07-23T09:47:41.379Z,33.42
2018-07-23T09:50:10.457Z,33.35
2018-07-23T09:52:39.336Z,36.53
2018-07-23T09:55:08.767Z,37.14
2018-07-23T09:57:37.454Z,38.16
2018-07-23T10:00:06.782Z,38.53
2018-07-23T10:02:35.998Z,38.16
2018-07-23T10:05:06.119Z,37.57
2018-07-23T10:07:34.946Z,40.08
2018-07-23T10:10:05.228Z,44.43
2018-07-23T10:12:34.566Z,45.91
2018-07-23T10:15:03.490Z,50.73
2018-07-23T10:17:32.753Z,50.65
2018-07-23T10:20:01.813Z,55.13
2018-07-23T10:22:33.010Z,53.86
2018-07-23T10:25:02.460Z,59.34
2018-07-23T10:27:31.744Z,61.73
2018-07-23T10:30:01.886Z,61.69
2018-07-23T10:32:31.220Z,62.03
2018-07-23T10:35:00.173Z,64.28
2018-07-23T10:37:29.339Z,64.03
2018-07-23T10:39:58.683Z,67.83
2018-07-23T10:42:27.647Z,68.88
2018-07-23T10:44:57.165Z,69.47
2018-07-23T10:47:27.806Z,71.56
2018-07-23T10:49:56.975Z,69.73
2018-07-23T10:52:26.065Z,68.91
2018-07-23T10:54:56.141Z,70.53
2018-07-23T10:57:25.100Z,71.80
2018-07-23T10:59:53.784Z,72.54
2018-07-23T11:02:23.306Z,73.97
2018-07-23T11:04:52.505Z,73.28
2018-07-23T11:07:22.100Z,74.86
2018-07-23T11:09:51.326Z,72.52
2018-07-23T11:12:20.305Z,76.60
2018-07-23T11:14:49.504Z,76.39
2018-07-23T11:17:18.462Z,73.39
2018-07-23T11:19:47.425Z,75.17
2018-07-23T11:22:16.367Z,74.93
2018-07-23T11:24:45.851Z,75.41
2018-07-23T11:27:14.697Z,75.24
2018-07-23T11:29:44.802Z,76.02
2018-07-23T11:32:13.785Z,74.58
2018-07-23T11:34:42.718Z,73.12
2018-07-23T11:37:11.717Z,72.17
2018-07-23T11:39:40.989Z,70.37
2018-07-23T11:42:10.983Z,68.79
2018-07-23T11:44:39.899Z,64.41
2018-07-23T11:47:10.263Z,61.85
2018-07-23T11:49:39.338Z,60.00
2018-07-23T11:52:14.357Z,58.26
2018-07-23T11:54:38.610Z,57.30
2018-07-23T11:57:07.651Z,54.78
2018-07-23T11:59:36.622Z,54.82
2018-07-23T12:02:05.826Z,53.29
2018-07-23T12:04:34.975Z,53.57
2018-07-23T12:07:03.911Z,53.70
2018-07-23T12:09:33.369Z,53.76
2018-07-23T12:12:02.202Z,51.61
2018-07-23T12:14:31.511Z,54.35
2018-07-23T12:17:01.466Z,53.48
2018-07-23T12:19:31.030Z,51.98
2018-07-23T12:22:00.488Z,51.81
2018-07-23T12:24:30.037Z,51.62
2018-07-23T12:26:59.020Z,51.89
2018-07-23T12:29:27.880Z,51.28
2018-07-23T12:31:59.163Z,49.41
2018-07-23T12:34:28.056Z,46.28
2018-07-23T12:36:57.353Z,47.27
2018-07-23T12:39:26.414Z,46.76
2018-07-23T12:41:55.442Z,45.21
2018-07-23T12:44:24.419Z,42.02
2018-07-23T12:46:53.725Z,39.78
2018-07-23T12:49:22.907Z,39.05
2018-07-23T12:51:51.736Z,36.19
2018-07-23T12:54:21.127Z,37.74
2018-07-23T12:56:50.847Z,37.17
2018-07-23T12:59:20.238Z,37.41
2018-07-23T13:01:49.967Z,37.95
2018-07-23T13:04:18.757Z,37.89
2018-07-23T13:06:47.680Z,38.10
2018-07-23T13:09:17.080Z,39.76
2018-07-23T13:11:46.339Z,40.30
2018-07-23T13:14:16.380Z,40.89
2018-07-23T13:16:46.121Z,42.88
2018-07-23T13:19:15.128Z,47.01
2018-07-23T13:21:44.974Z,52.16
2018-07-23T13:24:16.112Z,57.68
2018-07-23T13:26:46.347Z,61.77
2018-07-23T13:29:15.179Z,62.87
2018-07-23T13:31:44.306Z,64.04
2018-07-23T13:34:13.834Z,65.01
2018-07-23T13:36:43.322Z,65.63
2018-07-23T13:39:14.084Z,64.30
2018-07-23T13:41:43.460Z,63.54
2018-07-23T13:44:12.836Z,64.16
2018-07-23T13:46:42.508Z,63.57
2018-07-23T13:49:11.391Z,64.36
2018-07-23T13:51:40.451Z,64.76
2018-07-23T13:54:09.698Z,65.09
2018-07-23T13:56:38.670Z,62.47
2018-07-23T13:59:07.678Z,61.08
2018-07-23T14:01:36.803Z,61.67
2018-07-23T14:04:06.962Z,61.54
2018-07-23T14:06:36.183Z,62.93
2018-07-23T14:09:07.560Z,63.88
2018-07-23T14:11:36.719Z,64.27
2018-07-23T14:14:05.856Z,63.63
2018-07-23T14:16:35.582Z,62.64
2018-07-23T14:19:04.775Z,63.32
2018-07-23T14:21:33.752Z,62.33
2018-07-23T14:24:03.371Z,65.49
2018-07-23T14:26:32.202Z,69.44
2018-07-23T14:29:01.135Z,70.62
2018-07-23T14:31:30.294Z,67.71
2018-07-23T14:33:59.252Z,68.21
2018-07-23T14:36:28.949Z,68.38
2018-07-23T14:38:58.858Z,69.67
2018-07-23T14:41:28.387Z,70.32
2018-07-23T14:43:58.018Z,66.36
2018-07-23T14:46:27.368Z,65.87
2018-07-23T14:48:56.581Z,66.18
2018-07-23T14:51:25.371Z,68.19
2018-07-23T14:53:54.691Z,68.88
2018-07-23T14:56:24.399Z,66.81
2018-07-23T14:58:53.681Z,66.18
2018-07-23T15:01:22.570Z,66.21
2018-07-23T15:03:52.504Z,65.65
2018-07-23T15:06:21.682Z,67.40
2018-07-23T15:08:50.675Z,67.11
2018-07-23T15:11:19.942Z,66.66
2018-07-23T15:13:49.179Z,67.85
2018-07-23T15:16:18.371Z,65.94
2018-07-23T15:18:47.890Z,64.67
2018-07-23T15:21:18.097Z,64.33
2018-07-23T15:23:48.555Z,64.79
2018-07-23T15:26:18.566Z,64.64
2018-07-23T15:28:48.452Z,65.12
2018-07-23T15:31:19.392Z,64.60
2018-07-23T15:33:48.715Z,64.68
2018-07-23T15:36:17.863Z,63.76
2018-07-23T15:38:48.719Z,63.45
2018-07-23T15:41:18.203Z,63.55
2018-07-23T15:43:49.327Z,64.74
2018-07-23T15:46:19.115Z,64.46
2018-07-23T15:48:48.960Z,65.15
2018-07-23T15:51:18.942Z,64.12
2018-07-23T15:53:49.969Z,65.86
2018-07-23T15:56:21.361Z,66.92
2018-07-23T15:58:51.266Z,66.94
2018-07-23T16:01:21.334Z,66.68
2018-07-23T16:03:51.486Z,67.11
2018-07-23T16:06:21.501Z,64.84
2018-07-23T16:08:50.798Z,65.74
2018-07-23T16:11:22.438Z,65.75
2018-07-23T16:13:51.710Z,68.23
2018-07-23T16:16:21.059Z,67.60
2018-07-23T16:18:50.788Z,67.08
2018-07-23T16:21:20.227Z,65.67
2018-07-23T16:23:49.252Z,66.24
2018-07-23T16:26:17.994Z,64.73
2018-07-23T16:28:47.034Z,63.36
2018-07-23T16:31:16.716Z,61.47
2018-07-23T16:33:45.435Z,61.24
2018-07-23T16:36:14.299Z,62.53
2018-07-23T16:38:43.949Z,61.73
2018-07-23T16:41:13.688Z,63.31
2018-07-23T16:43:42.907Z,64.07
2018-07-23T16:46:11.930Z,61.93
2018-07-23T16:48:41.570Z,61.51
2018-07-23T16:51:10.747Z,61.82
2018-07-23T16:53:40.395Z,64.52
2018-07-23T16:56:09.310Z,62.57
2018-07-23T16:58:38.246Z,61.02
2018-07-23T17:01:07.595Z,69.59
2018-07-23T17:03:36.874Z,72.12
2018-07-23T17:06:05.734Z,73.33
2018-07-23T17:08:34.687Z,77.75
2018-07-23T17:11:04.116Z,78.13
2018-07-23T17:13:32.926Z,81.15
2018-07-23T17:16:01.723Z,85.83
2018-07-23T17:18:31.040Z,88.37
2018-07-23T17:20:59.826Z,90.51
2018-07-23T17:23:28.785Z,91.24
2018-07-23T17:25:58.114Z,92.18
2018-07-23T17:28:27.100Z,92.92
2018-07-23T17:30:55.890Z,94.94
2018-07-23T17:33:25.637Z,94.16
2018-07-23T17:35:54.897Z,92.68
2018-07-23T17:38:23.752Z,93.04
2018-07-23T17:40:52.999Z,93.30
2018-07-23T17:43:22.035Z,95.67
2018-07-23T17:45:50.873Z,96.08
2018-07-23T17:48:20.199Z,92.12
2018-07-23T17:50:49.069Z,94.89
2018-07-23T17:53:18.386Z,94.69
2018-07-23T17:55:47.695Z,95.74
2018-07-23T17:58:16.472Z,96.95
2018-07-23T18:00:45.157Z,94.23
2018-07-23T18:03:14.286Z,94.02
2018-07-23T18:05:43.964Z,93.41
2018-07-23T18:08:12.883Z,90.73
2018-07-23T18:10:41.901Z,90.96
2018-07-23T18:13:11.766Z,91.30
2018-07-23T18:15:40.818Z,93.10
2018-07-23T18:18:09.894Z,97.29
2018-07-23T18:20:39.026Z,97.07
2018-07-23T18:23:08.159Z,97.76
2018-07-23T18:25:37.627Z,98.13
2018-07-23T18:28:06.969Z,97.74
2018-07-23T18:30:36.368Z,98.34
2018-07-23T18:33:05.638Z,98.76
2018-07-23T18:35:34.460Z,98.71
2018-07-23T18:38:03.202Z,97.81
2018-07-23T18:40:32.682Z,97.85
2018-07-23T18:43:01.546Z,97.58
2018-07-23T18:45:30.536Z,98.52
2018-07-23T18:48:00.282Z,97.33
2018-07-23T18:50:29.687Z,96.67
2018-07-23T18:52:58.650Z,96.54
2018-07-23T18:55:27.979Z,97.29
2018-07-23T18:57:56.782Z,98.36
2018-07-23T19:00:25.525Z,99.28
2018-07-23T19:02:54.968Z,97.82
2018-07-23T19:05:24.238Z,97.81
2018-07-23T19:07:53.225Z,97.35
2018-07-23T19:10:22.254Z,98.30
2018-07-23T19:12:51.661Z,98.15
2018-07-23T19:15:20.644Z,97.68
2018-07-23T19:17:50.390Z,96.04
2018-07-23T19:20:19.394Z,95.96
2018-07-23T19:22:48.195Z,96.20
2018-07-23T19:25:17.434Z,97.89
2018-07-23T19:27:46.615Z,98.31
2018-07-23T19:30:15.466Z,98.70
2018-07-23T19:32:45.543Z,97.33
2018-07-23T19:35:15.295Z,96.34
2018-07-23T19:37:44.255Z,95.87
2018-07-23T19:40:13.362Z,95.39
2018-07-23T19:42:43.515Z,95.93
2018-07-23T19:45:12.503Z,96.09
2018-07-23T19:47:42.003Z,95.38
2018-07-23T19:50:11.378Z,96.82
2018-07-23T19:52:40.829Z,96.61
2018-07-23T19:55:10.654Z,97.02
2018-07-23T19:57:40.892Z,96.29
2018-07-23T20:00:11.572Z,97.56
2018-07-23T20:02:40.723Z,97.09
2018-07-23T20:05:09.674Z,97.29
2018-07-23T20:07:38.760Z,97.95
2018-07-23T20:10:07.818Z,97.70
2018-07-23T20:12:36.883Z,98.22
2018-07-23T20:15:06.191Z,96.40
2018-07-23T20:17:35.106Z,96.64
2018-07-23T20:20:04.162Z,96.79
2018-07-23T20:22:33.728Z,97.24
2018-07-23T20:25:02.607Z,98.58
2018-07-23T20:27:31.582Z,100.00
2018-07-23T20:30:00.835Z,100.00
2018-07-23T20:32:29.887Z,100.00
2018-07-23T20:34:59.044Z,100.00
2018-07-23T20:37:28.204Z,100.00
2018-07-23T20:39:57.359Z,100.00
2018-07-23T20:42:26.376Z,100.00
2018-07-23T20:44:55.890Z,100.00
2018-07-23T20:47:25.343Z,100.00
2018-07-23T20:49:55.412Z,100.00
2018-07-23T20:52:24.540Z,100.00
2018-07-23T20:54:53.608Z,100.00
2018-07-23T20:57:22.614Z,100.00
2018-07-23T20:59:52.209Z,100.00
2018-07-23T21:02:21.223Z,100.00
2018-07-23T21:04:49.979Z,100.00
2018-07-23T21:07:19.042Z,100.00
2018-07-23T21:09:48.213Z,100.00
2018-07-23T21:12:17.826Z,100.00
2018-07-23T21:14:47.210Z,100.00
2018-07-23T21:17:16.182Z,100.00
2018-07-23T21:19:46.101Z,100.00
2018-07-23T21:22:15.030Z,99.80
2018-07-23T21:24:44.036Z,100.00
2018-07-23T21:27:13.518Z,99.04
2018-07-23T21:29:43.134Z,98.93
2018-07-23T21:32:12.004Z,98.39
2018-07-23T21:34:41.362Z,98.47
2018-07-23T21:37:11.096Z,99.54
2018-07-23T21:39:39.912Z,100.00
2018-07-23T21:42:08.915Z,99.44
2018-07-23T21:44:38.231Z,99.70
2018-07-23T21:47:07.418Z,100.00
2018-07-23T21:49:36.598Z,100.00
2018-07-23T21:52:05.570Z,100.00
2018-07-23T21:54:34.514Z,100.00
2018-07-23T21:57:03.278Z,100.00
2018-07-23T21:59:32.398Z,100.00
2018-07-23T22:02:01.646Z,100.00
2018-07-23T22:04:30.980Z,100.00
2018-07-23T22:07:00.012Z,100.00
2018-07-23T22:09:29.686Z,100.00
2018-07-23T22:11:59.198Z,100.00
2018-07-23T22:14:28.394Z,100.00
2018-07-23T22:16:57.479Z,100.00
2018-07-23T22:19:26.586Z,100.00
2018-07-23T22:21:56.004Z,100.00
2018-07-23T22:24:24.886Z,100.00
2018-07-23T22:26:53.736Z,100.00
2018-07-23T22:29:22.589Z,99.58
2018-07-23T22:31:51.970Z,100.00
2018-07-23T22:34:20.732Z,99.64
2018-07-23T22:36:50.164Z,100.00
2018-07-23T22:39:19.367Z,100.00
2018-07-23T22:41:48.863Z,100.00
2018-07-23T22:44:17.800Z,100.00
2018-07-23T22:46:47.386Z,100.00
2018-07-23T22:49:16.459Z,100.00
2018-07-23T22:51:45.246Z,100.00
2018-07-23T22:54:14.350Z,100.00
2018-07-23T22:56:43.235Z,100.00
2018-07-23T22:59:12.792Z,100.00
2018-07-23T23:01:41.749Z,100.00
2018-07-23T23:04:10.615Z,100.00
2018-07-23T23:06:39.969Z,99.92
2018-07-23T23:09:10.356Z,99.90
2018-07-23T23:11:39.563Z,99.31
2018-07-23T23:14:08.499Z,99.44
2018-07-23T23:16:37.222Z,99.47
2018-07-23T23:19:06.268Z,98.84
2018-07-23T23:21:35.514Z,98.25
2018-07-23T23:24:04.548Z,98.40
2018-07-23T23:26:33.697Z,98.84
2018-07-23T23:29:03.588Z,98.37
2018-07-23T23:31:32.502Z,98.27
2018-07-23T23:34:01.435Z,98.10
2018-07-23T23:36:30.434Z,97.95
2018-07-23T23:38:59.369Z,96.75
2018-07-23T23:41:28.235Z,97.04
2018-07-23T23:43:58.474Z,95.73
2018-07-23T23:46:28.027Z,96.47
2018-07-23T23:48:57.660Z,96.36
2018-07-23T23:51:27.591Z,96.92
2018-07-23T23:53:56.364Z,96.39
2018-07-23T23:56:25.051Z,96.07
2018-07-23T23:58:54.783Z,96.76
